This is the latest recevied weather packets stored in our database for station/object N5CSU. If no packets are shown the sender has not sent any weather packets the latest 1 day(s).
| Time | Temp. | Humidity | Pressure | Rain* | Wind** | Luminosity | Snow |
|---|---|---|---|---|---|---|---|
| 1778108212 | 16.11° C | 80% | 1014 hPa | 0 mm | - | 12 W/m² | - |
| 1778107302 | 16.67° C | 80% | 1013.9 hPa | 0 mm | - | 9 W/m² | - |
| 1778104572 | 16.11° C | 81% | 1013.6 hPa | 0 mm | - | 7 W/m² | - |
| 1778102443 | 16.11° C | 80% | 1013.6 hPa | 0 mm | - | 14 W/m² | - |
| 1778101230 | 16.11° C | 80% | 1013.9 hPa | 0 mm | - | 16 W/m² | - |
| 1778099108 | 16.11° C | 78% | 1014.1 hPa | 0 mm | - | 19 W/m² | - |
| 1778098502 | 15.56° C | 82% | 1014.2 hPa | 0 mm | - | 29 W/m² | - |
| 1778097585 | 15.56° C | 82% | 1014.8 hPa | 0 mm | - | 15 W/m² | - |
| 1778096070 | 15° C | 83% | 1014.5 hPa | 0 mm | - | 41 W/m² | - |
| 1778095766 | 15° C | 85% | 1014.5 hPa | 0 mm | - | 34 W/m² | - |
| 1778095463 | 14.44° C | 85% | 1014.7 hPa | 0 mm | - | 21 W/m² | - |
| 1778095160 | 14.44° C | 85% | 1015 hPa | 0 mm | - | 21 W/m² | - |
| 1778094250 | 13.89° C | 86% | 1015.2 hPa | 0 mm | - | 8 W/m² | - |
| 1778092430 | 13.89° C | 85% | 1014.5 hPa | 0 mm | - | 14 W/m² | - |
| 1778092128 | 13.89° C | 87% | 1014.8 hPa | 0 mm | - | 11 W/m² | - |
| 1778091825 | 13.89° C | 86% | 1014.7 hPa | 0 mm | - | 11 W/m² | - |
| 1778090613 | 13.89° C | 88% | 1013.3 hPa | 0 mm | - | 20 W/m² | - |
| 1778088492 | 13.33° C | 91% | 1014.4 hPa | 0 mm | - | 19 W/m² | - |
| 1778087281 | 12.78° C | 91% | 1014.7 hPa | 0 mm | - | 8 W/m² | - |
| 1778086977 | 12.78° C | 92% | 1015.1 hPa | 0 mm | - | 7 W/m² | - |
| 1778085158 | 13.33° C | 90% | 1014.4 hPa | 0 mm | - | 15 W/m² | - |
| 1778084854 | 13.89° C | 90% | 1014.6 hPa | 0 mm | - | 13 W/m² | - |
| 1778083644 | 12.78° C | 92% | 1015.1 hPa | 0 mm | - | 37 W/m² | - |
| 1778083340 | 12.78° C | 92% | 1015.1 hPa | 0 mm | - | 29 W/m² | - |
| 1778081604 | 12.78° C | 91% | 1014.8 hPa | 0 mm | - | 9 W/m² | - |
* Rain latest hour (hover to see other rain measurements)
** Current wind speed in m/s (hover to see current wind gust speed)